M I D A S
Marine Information and Data Acquisition System
Tripno 1500 of the Zeeleeuw from 2008-06-10 06:42:01 to 2008-06-10 13:07:52
Back to CruiseResearch ActivitiesStationsMapUnderway DataData graphs

EquipmentUnitsComment
TimeDGPSUTC
LatitudeDGPSDM.mWGS84
LongitudeDGPSDM.mWGS84
HeadingGyrodeg 
SOGDGPSknotsSpeed over ground
COGDGPSdegCourse over ground
DepthEcho soundermeters200 kHz
Missing or incorrect values are displayed as -999
Navigation data collected by the RV Zeeleeuw from 2008-06-10 06:14:03 to 2008-06-10 13:10:29
                                                                                    Next 1000 lines
Time Latitude Longitude Heading SOG COG Depth
2008-06-10 06:14:13 51°13.623 2°56.045 111.9 1 287 -999
2008-06-10 06:14:18 51°13.624 2°56.042 111.7 1.4 289 -999
2008-06-10 06:14:23 51°13.624 2°56.038 111.7 1.9 291 -999
2008-06-10 06:14:28 51°13.626 2°56.033 112.6 2.4 293 9.8
2008-06-10 06:14:33 51°13.628 2°56.027 113.1 2.9 296 -999
2008-06-10 06:14:38 51°13.629 2°56.021 114.3 3.2 295 -999
2008-06-10 06:14:43 51°13.632 2°56.014 114.7 3.5 296 -999
2008-06-10 06:14:48 51°13.634 2°56.006 114.8 3.8 295 -999
2008-06-10 06:14:53 51°13.636 2°55.998 114.8 4.1 296 -999
2008-06-10 06:14:58 51°13.639 2°55.989 114.8 4.4 296 -999
2008-06-10 06:15:03 51°13.641 2°55.98 114.6 4.6 295 -999
2008-06-10 06:15:08 51°13.644 2°55.97 114.8 4.8 295 -999
2008-06-10 06:15:13 51°13.647 2°55.96 115.3 5 295 -999
2008-06-10 06:15:18 51°13.65 2°55.95 115.3 5.1 295 -999
2008-06-10 06:15:23 51°13.654 2°55.94 115.2 5.2 296 -999
2008-06-10 06:15:28 51°13.657 2°55.929 114.6 5.3 296 -999
2008-06-10 06:15:33 51°13.66 2°55.918 113.3 5.3 295 -999
2008-06-10 06:15:38 51°13.663 2°55.908 112.2 5.4 294 -999
2008-06-10 06:15:43 51°13.666 2°55.897 110.7 5.4 293 -999
2008-06-10 06:15:48 51°13.669 2°55.886 109.7 5.4 292 -999
2008-06-10 06:15:53 51°13.672 2°55.875 108.8 5.3 291 -999
2008-06-10 06:15:58 51°13.674 2°55.864 107.3 5.2 289 -999
2008-06-10 06:16:03 51°13.676 2°55.853 105.3 5 288 -999
2008-06-10 06:16:08 51°13.678 2°55.843 103 4.7 285 -999
2008-06-10 06:16:13 51°13.679 2°55.834 100.9 4.4 283 -999
2008-06-10 06:16:18 51°13.68 2°55.825 99.1 4.2 282 -999
2008-06-10 06:16:23 51°13.681 2°55.816 97.4 4 280 -999
2008-06-10 06:16:28 51°13.682 2°55.808 95.7 3.8 280 -999
2008-06-10 06:16:33 51°13.683 2°55.8 94.5 3.6 278 10.9
2008-06-10 06:16:38 51°13.684 2°55.793 93.8 3.4 279 10.8
2008-06-10 06:16:43 51°13.685 2°55.786 93.5 3.3 279 11.2
2008-06-10 06:16:48 51°13.686 2°55.779 93.3 3.2 280 12
2008-06-10 06:16:53 51°13.686 2°55.772 92.9 2.9 280 12.7
2008-06-10 06:16:58 51°13.686 2°55.766 92.2 2.7 280 13.6
2008-06-10 06:17:03 51°13.687 2°55.761 91 2.5 279 14
2008-06-10 06:17:08 51°13.687 2°55.756 89.2 2.3 279 13.5
2008-06-10 06:17:13 51°13.688 2°55.751 86.7 2.1 278 13.4
2008-06-10 06:17:18 51°13.688 2°55.747 84 1.9 272 13.5
2008-06-10 06:17:23 51°13.688 2°55.743 80.6 1.7 269 14.1
2008-06-10 06:17:28 51°13.688 2°55.74 76.8 1.5 267 14.3
2008-06-10 06:17:33 51°13.687 2°55.737 73.2 1.3 266 14.7
2008-06-10 06:17:38 51°13.687 2°55.735 69.8 1 269 15.1
2008-06-10 06:17:43 51°13.688 2°55.734 66.7 0.6 280 15.4
2008-06-10 06:17:48 51°13.688 2°55.733 62.4 0.3 332 15.5
2008-06-10 06:17:53 51°13.689 2°55.734 57.4 0.6 25 15.3
2008-06-10 06:17:58 51°13.69 2°55.735 53 1.3 35 15.3
2008-06-10 06:18:03 51°13.692 2°55.737 45.9 1.8 34 15.2
2008-06-10 06:18:08 51°13.695 2°55.74 39 2.4 29 14.9
2008-06-10 06:18:13 51°13.699 2°55.743 31.5 2.9 25 15.1
2008-06-10 06:18:18 51°13.703 2°55.745 24.2 3.2 15 15.5
2008-06-10 06:18:23 51°13.708 2°55.746 17 3.6 8 15.7
2008-06-10 06:18:28 51°13.713 2°55.746 9.6 4 1 16
2008-06-10 06:18:33 51°13.719 2°55.744 1.7 4.2 350 15.4
2008-06-10 06:18:38 51°13.725 2°55.741 353.1 4.6 343 15.3
2008-06-10 06:18:43 51°13.732 2°55.736 343.9 5.2 333 -999
2008-06-10 06:18:48 51°13.739 2°55.729 334.6 5.9 328 13.5
2008-06-10 06:18:53 51°13.746 2°55.721 329 6.6 326 12.7
2008-06-10 06:18:58 51°13.755 2°55.712 326.7 7.2 326 12.3
2008-06-10 06:19:03 51°13.764 2°55.703 326.5 7.8 327 12.2
2008-06-10 06:19:08 51°13.774 2°55.693 327.7 8.3 328 12.2
2008-06-10 06:19:13 51°13.784 2°55.682 328.5 8.5 327 11.6
2008-06-10 06:19:18 51°13.793 2°55.673 328.6 8 328 11.5
2008-06-10 06:19:23 51°13.803 2°55.664 328.7 7.7 329 11.9
2008-06-10 06:19:28 51°13.811 2°55.656 329.7 7.5 331 11.9
2008-06-10 06:19:33 51°13.82 2°55.648 331.6 7.2 332 12.1
2008-06-10 06:19:38 51°13.829 2°55.641 332.9 7.2 332 12.3
2008-06-10 06:19:43 51°13.838 2°55.633 333.5 7.5 333 12.2
2008-06-10 06:19:48 51°13.848 2°55.625 333.6 7.8 332 12.3
2008-06-10 06:19:53 51°13.858 2°55.617 333.4 8.1 333 12.5
2008-06-10 06:19:58 51°13.868 2°55.609 333.8 8.3 334 12.8
2008-06-10 06:20:03 51°13.879 2°55.601 334.4 8.5 334 12.8
2008-06-10 06:20:08 51°13.89 2°55.592 333.8 8.8 333 12.7
2008-06-10 06:20:13 51°13.901 2°55.583 333.5 9 334 12.8
2008-06-10 06:20:18 51°13.912 2°55.574 333.8 9.2 335 12.8
2008-06-10 06:20:23 51°13.924 2°55.566 335.1 9.3 335 12.9
2008-06-10 06:20:28 51°13.936 2°55.557 335.6 9.4 335 12.9
2008-06-10 06:20:33 51°13.947 2°55.548 334.6 9.3 333 12.8
2008-06-10 06:20:38 51°13.959 2°55.539 334 9.1 334 12.8
2008-06-10 06:20:43 51°13.97 2°55.53 334 8.8 334 12.8
2008-06-10 06:20:48 51°13.981 2°55.522 333.9 8.8 335 12.8
2008-06-10 06:20:53 51°13.992 2°55.514 334.5 8.6 336 12.7
2008-06-10 06:20:58 51°14.003 2°55.507 335.6 8.5 335 13
2008-06-10 06:21:03 51°14.013 2°55.499 335.5 8.3 334 12.7
2008-06-10 06:21:08 51°14.023 2°55.491 334.9 7.9 335 12.7
2008-06-10 06:21:13 51°14.032 2°55.484 334.7 7.5 335 12.7
2008-06-10 06:21:18 51°14.042 2°55.478 335.1 7.2 336 13.1
2008-06-10 06:21:23 51°14.05 2°55.471 335.2 7 336 13.2
2008-06-10 06:21:28 51°14.059 2°55.464 335.4 6.9 335 12.8
2008-06-10 06:21:33 51°14.068 2°55.458 335 7 335 -999
2008-06-10 06:21:38 51°14.077 2°55.451 334.5 7.2 334 13.1
2008-06-10 06:21:43 51°14.086 2°55.444 334.4 7.5 334 12.8
2008-06-10 06:21:48 51°14.096 2°55.437 334.5 7.9 335 13.4
2008-06-10 06:21:53 51°14.107 2°55.429 334.7 8.1 334 13.1
2008-06-10 06:21:58 51°14.117 2°55.42 333.8 8.5 333 -999
2008-06-10 06:22:03 51°14.128 2°55.411 332.7 8.7 333 13.4
2008-06-10 06:22:08 51°14.139 2°55.402 332.5 8.9 332 12.7
2008-06-10 06:22:13 51°14.15 2°55.392 332.5 9 332 13.3
2008-06-10 06:22:18 51°14.161 2°55.382 332.1 9.2 331 -999
2008-06-10 06:22:23 51°14.172 2°55.371 329.5 9.3 328 -999
2008-06-10 06:22:28 51°14.183 2°55.36 327.2 9.3 326 4.7
2008-06-10 06:22:33 51°14.194 2°55.348 326 9.5 325 -999
2008-06-10 06:22:38 51°14.204 2°55.335 324.3 9.6 323 -999
2008-06-10 06:22:43 51°14.215 2°55.322 322.8 9.8 322 13.4
2008-06-10 06:22:48 51°14.226 2°55.308 321.4 9.9 319 -999
2008-06-10 06:22:53 51°14.236 2°55.292 319.2 10 316 -999
2008-06-10 06:22:58 51°14.245 2°55.276 316.2 10.2 315 13.4
2008-06-10 06:23:03 51°14.255 2°55.26 314.7 10.3 314 13.1
2008-06-10 06:23:08 51°14.265 2°55.243 314.1 10.4 313 12.7
2008-06-10 06:23:13 51°14.275 2°55.226 313.7 10.6 313 12.6
2008-06-10 06:23:18 51°14.285 2°55.208 313.2 10.9 312 12.6
2008-06-10 06:23:23 51°14.295 2°55.189 312.3 11.1 311 12.5
2008-06-10 06:23:28 51°14.305 2°55.17 312.1 11.3 311 12.5
2008-06-10 06:23:33 51°14.316 2°55.151 311.7 11.6 309 12.5
2008-06-10 06:23:38 51°14.326 2°55.13 309.6 11.8 309 12.9
2008-06-10 06:23:43 51°14.337 2°55.11 308.9 12 310 13.4
2008-06-10 06:23:48 51°14.347 2°55.089 308.9 12.1 311 13.2
2008-06-10 06:23:53 51°14.359 2°55.07 309.8 12.2 313 13.5
2008-06-10 06:23:58 51°14.371 2°55.05 311.8 12.3 315 13.5
2008-06-10 06:24:03 51°14.384 2°55.033 314.2 12.3 319 13.3
2008-06-10 06:24:08 51°14.397 2°55.014 316.9 12.4 319 12.8
2008-06-10 06:24:13 51°14.41 2°54.997 317.3 12.4 321 12.9
2008-06-10 06:24:18 51°14.424 2°54.98 318 12.4 323 12.9
2008-06-10 06:24:23 51°14.437 2°54.963 319.1 12.4 321 13.1
2008-06-10 06:24:28 51°14.45 2°54.945 318.1 12.4 322 12.9
2008-06-10 06:24:33 51°14.464 2°54.929 317.8 12.4 323 12.9
2008-06-10 06:24:38 51°14.478 2°54.912 318.2 12.4 323 12.9
2008-06-10 06:24:43 51°14.491 2°54.896 317.8 12.3 322 12.6
2008-06-10 06:24:48 51°14.504 2°54.879 316.5 12.1 320 12.5
2008-06-10 06:24:53 51°14.517 2°54.861 315.5 12.2 319 12.5
2008-06-10 06:24:58 51°14.529 2°54.843 314.1 12.1 317 12.5
2008-06-10 06:25:03 51°14.542 2°54.825 312.3 12.1 318 12.4
2008-06-10 06:25:08 51°14.555 2°54.808 311.7 12.2 320 12.2
2008-06-10 06:25:13 51°14.567 2°54.79 312.7 12.2 318 12.3
2008-06-10 06:25:18 51°14.579 2°54.771 312.5 12 316 12.2
2008-06-10 06:25:23 51°14.591 2°54.753 311.3 12 316 12.2
2008-06-10 06:25:28 51°14.603 2°54.734 310.9 12.1 316 12.1
2008-06-10 06:25:33 51°14.615 2°54.715 310.4 12.1 314 12.1
2008-06-10 06:25:38 51°14.626 2°54.696 309.3 12.1 314 12.1
2008-06-10 06:25:43 51°14.638 2°54.677 309.1 12.1 313 12.1
2008-06-10 06:25:48 51°14.649 2°54.657 308.2 12.1 312 12.2
2008-06-10 06:25:53 51°14.66 2°54.637 307 12 311 12.2
2008-06-10 06:25:58 51°14.67 2°54.617 306.1 12 309 12.2
2008-06-10 06:26:03 51°14.681 2°54.597 304.7 12 309 12.2
2008-06-10 06:26:08 51°14.692 2°54.576 304.3 12 309 12.3
2008-06-10 06:26:13 51°14.702 2°54.556 303.8 12.1 311 12.2
2008-06-10 06:26:18 51°14.713 2°54.535 304.6 12 310 12.3
2008-06-10 06:26:23 51°14.724 2°54.515 304.6 12 310 12.3
2008-06-10 06:26:28 51°14.734 2°54.494 304.6 12 309 12.3
2008-06-10 06:26:33 51°14.745 2°54.473 304.1 12 308 12.4
2008-06-10 06:26:38 51°14.755 2°54.452 303.8 12.1 308 12.4
2008-06-10 06:26:43 51°14.766 2°54.431 303.9 12.1 308 12.4
2008-06-10 06:26:48 51°14.776 2°54.41 304 12.1 308 12.5
2008-06-10 06:26:53 51°14.787 2°54.389 304 12.1 309 12.3
2008-06-10 06:26:58 51°14.797 2°54.369 304.5 12.1 309 12.1
2008-06-10 06:27:03 51°14.808 2°54.348 304.9 12.1 310 12.2
2008-06-10 06:27:08 51°14.819 2°54.327 305.2 12.2 310 12.3
2008-06-10 06:27:13 51°14.829 2°54.307 305.2 12.1 310 12.2
2008-06-10 06:27:18 51°14.84 2°54.286 305.1 12.1 310 12.1
2008-06-10 06:27:23 51°14.851 2°54.266 304.9 12.2 311 12
2008-06-10 06:27:28 51°14.862 2°54.246 305.4 12.1 312 11.9
2008-06-10 06:27:33 51°14.874 2°54.226 306 12.2 313 11.8
2008-06-10 06:27:38 51°14.886 2°54.206 306.9 12.2 314 11.6
2008-06-10 06:27:43 51°14.897 2°54.187 307.6 12.2 313 11.6
2008-06-10 06:27:48 51°14.909 2°54.167 308.2 12.2 313 11.5
2008-06-10 06:27:53 51°14.92 2°54.147 308.6 12.1 310 11.4
2008-06-10 06:27:58 51°14.931 2°54.126 307.5 12.2 310 11.4
2008-06-10 06:28:03 51°14.942 2°54.106 306.3 12.2 309 11.5
2008-06-10 06:28:08 51°14.952 2°54.084 305.6 12.2 308 11.6
2008-06-10 06:28:13 51°14.963 2°54.063 304.7 12.2 309 11.6
2008-06-10 06:28:18 51°14.973 2°54.042 304.6 12.2 308 11.6
2008-06-10 06:28:23 51°14.984 2°54.021 304 12.2 309 11.6
2008-06-10 06:28:28 51°14.994 2°54 304 12.2 308 11.7
2008-06-10 06:28:33 51°15.005 2°53.979 303.9 12.2 309 11.8
2008-06-10 06:28:38 51°15.015 2°53.957 303.9 12.2 308 11.9
2008-06-10 06:28:43 51°15.025 2°53.936 303.9 12.2 308 11.9
2008-06-10 06:28:48 51°15.036 2°53.914 303.9 12.2 306 12.1
2008-06-10 06:28:53 51°15.046 2°53.893 303.7 12.1 307 12.1
2008-06-10 06:28:58 51°15.055 2°53.87 303.3 12.1 302 12.2
2008-06-10 06:29:03 51°15.064 2°53.848 300.8 12.1 303 12.2
2008-06-10 06:29:08 51°15.072 2°53.825 299.1 12.1 301 12.2
2008-06-10 06:29:13 51°15.081 2°53.802 297.8 12.1 300 12.2
2008-06-10 06:29:18 51°15.089 2°53.779 296.5 12.1 299 11.9
2008-06-10 06:29:23 51°15.097 2°53.755 295.7 12 298 12.2
2008-06-10 06:29:28 51°15.105 2°53.732 295 12 296 12.1
2008-06-10 06:29:33 51°15.111 2°53.707 293.3 12 294 12.1
2008-06-10 06:29:38 51°15.119 2°53.683 291.3 12 294 12
2008-06-10 06:29:43 51°15.124 2°53.658 289.9 11.9 291 12.1
2008-06-10 06:29:48 51°15.131 2°53.634 288.6 11.9 292 12
2008-06-10 06:29:53 51°15.137 2°53.609 287.9 11.9 290 12.1
2008-06-10 06:29:58 51°15.143 2°53.585 287.1 11.9 291 12.1
2008-06-10 06:30:03 51°15.148 2°53.56 286.6 11.9 290 12.1
2008-06-10 06:30:08 51°15.154 2°53.536 286.3 11.9 290 12.1
2008-06-10 06:30:13 51°15.16 2°53.511 285.9 11.8 290 12.1
2008-06-10 06:30:18 51°15.165 2°53.487 285.9 11.8 289 12.2
2008-06-10 06:30:23 51°15.171 2°53.462 285.6 11.8 290 12.2
2008-06-10 06:30:28 51°15.176 2°53.438 285.4 11.8 290 12.2
2008-06-10 06:30:33 51°15.182 2°53.413 285.6 11.8 291 12.3
2008-06-10 06:30:38 51°15.188 2°53.389 286 11.8 291 12.3
2008-06-10 06:30:43 51°15.194 2°53.365 286.2 11.8 291 12.4
2008-06-10 06:30:48 51°15.199 2°53.34 286.4 11.8 291 12.5
2008-06-10 06:30:53 51°15.205 2°53.316 286.4 11.8 290 12.5
2008-06-10 06:30:58 51°15.21 2°53.291 285.8 11.8 289 12.5
2008-06-10 06:31:03 51°15.216 2°53.267 284.9 11.8 288 12.5
2008-06-10 06:31:08 51°15.221 2°53.242 284.2 11.8 288 12.6
2008-06-10 06:31:13 51°15.226 2°53.217 283.8 11.8 288 12.7
2008-06-10 06:31:18 51°15.231 2°53.192 283.5 11.8 288 12.6
2008-06-10 06:31:23 51°15.236 2°53.168 283.5 11.8 287 12.7
2008-06-10 06:31:28 51°15.24 2°53.143 283.1 11.7 286 12.7
2008-06-10 06:31:33 51°15.245 2°53.118 282.2 11.7 286 12.9
2008-06-10 06:31:38 51°15.249 2°53.093 281.5 11.6 286 12.8
2008-06-10 06:31:43 51°15.253 2°53.068 281.1 11.7 285 12.7
2008-06-10 06:31:48 51°15.257 2°53.043 280.7 11.6 285 12.6
2008-06-10 06:31:53 51°15.262 2°53.019 280.4 11.7 285 12.9
2008-06-10 06:31:58 51°15.265 2°52.994 280.6 11.7 285 12.9
2008-06-10 06:32:03 51°15.27 2°52.969 280.4 11.7 285 13
2008-06-10 06:32:08 51°15.274 2°52.944 280.6 11.7 285 13.3
2008-06-10 06:32:13 51°15.279 2°52.919 280.8 11.7 286 12.7
2008-06-10 06:32:18 51°15.283 2°52.894 280.9 11.7 286 12.9
2008-06-10 06:32:23 51°15.288 2°52.869 281.4 11.8 286 12.9
2008-06-10 06:32:28 51°15.292 2°52.844 281.5 11.7 286 13
2008-06-10 06:32:33 51°15.297 2°52.819 281.6 11.8 288 13
2008-06-10 06:32:38 51°15.302 2°52.795 282.6 11.8 289 13
2008-06-10 06:32:43 51°15.307 2°52.77 283.7 11.8 288 13
2008-06-10 06:32:48 51°15.313 2°52.745 283.9 11.8 290 13
2008-06-10 06:32:53 51°15.318 2°52.721 284.8 11.8 289 13.1
2008-06-10 06:32:58 51°15.324 2°52.696 285.1 11.9 291 13.2
2008-06-10 06:33:03 51°15.33 2°52.672 285.6 11.9 290 13.1
2008-06-10 06:33:08 51°15.335 2°52.647 285.5 11.8 289 13.2
2008-06-10 06:33:13 51°15.34 2°52.622 284.8 11.8 290 13.2
2008-06-10 06:33:18 51°15.346 2°52.598 284.6 11.8 289 13.3
2008-06-10 06:33:23 51°15.351 2°52.573 284.5 11.8 290 13.4
2008-06-10 06:33:28 51°15.356 2°52.548 284.7 11.8 289 13.4
2008-06-10 06:33:33 51°15.362 2°52.524 284.8 11.9 289 13.4
2008-06-10 06:33:38 51°15.367 2°52.499 284.8 11.8 287 13.4
2008-06-10 06:33:43 51°15.372 2°52.474 283.6 11.8 287 13.5
2008-06-10 06:33:48 51°15.376 2°52.449 282.7 11.8 286 13.5
2008-06-10 06:33:53 51°15.38 2°52.423 282.2 11.8 285 13.5
2008-06-10 06:33:58 51°15.385 2°52.398 281.2 11.8 286 13.6
2008-06-10 06:34:03 51°15.389 2°52.373 281.4 11.8 285 13.6
2008-06-10 06:34:08 51°15.394 2°52.348 281.4 11.8 286 13.6
2008-06-10 06:34:13 51°15.399 2°52.323 281.2 11.8 287 13.8
2008-06-10 06:34:18 51°15.403 2°52.298 281.8 11.8 287 13.8
2008-06-10 06:34:23 51°15.408 2°52.273 282.1 11.8 287 13.8
2008-06-10 06:34:28 51°15.413 2°52.248 282.2 11.8 287 13.9
2008-06-10 06:34:33 51°15.418 2°52.223 282.4 11.8 287 13.9
2008-06-10 06:34:38 51°15.422 2°52.198 282.5 11.8 287 13.9
2008-06-10 06:34:43 51°15.427 2°52.173 282.5 11.8 286 14
2008-06-10 06:34:48 51°15.431 2°52.148 281.9 11.8 285 14
2008-06-10 06:34:53 51°15.435 2°52.122 280.8 11.8 285 14
2008-06-10 06:34:58 51°15.439 2°52.097 280.3 11.8 283 14.1
2008-06-10 06:35:03 51°15.443 2°52.072 279.5 11.8 283 14.1
2008-06-10 06:35:08 51°15.446 2°52.047 279.1 11.8 283 14.1
2008-06-10 06:35:13 51°15.45 2°52.021 278.6 11.8 283 14.2
2008-06-10 06:35:18 51°15.454 2°51.996 278.6 11.8 283 14.2
2008-06-10 06:35:23 51°15.457 2°51.97 278.8 11.8 284 14.2
2008-06-10 06:35:28 51°15.461 2°51.945 279.2 11.8 283 14.2
2008-06-10 06:35:33 51°15.465 2°51.92 279.4 11.8 284 14.3
2008-06-10 06:35:38 51°15.469 2°51.895 279.3 11.8 284 14.2
2008-06-10 06:35:43 51°15.473 2°51.869 279.4 11.8 283 14.3
2008-06-10 06:35:48 51°15.477 2°51.844 279.1 11.8 283 14.3
2008-06-10 06:35:53 51°15.48 2°51.819 278.8 11.8 283 14.4
2008-06-10 06:35:58 51°15.484 2°51.794 278.9 11.8 283 14.4
2008-06-10 06:36:03 51°15.488 2°51.768 278.9 11.8 283 14.4
2008-06-10 06:36:08 51°15.491 2°51.743 279 11.8 283 14.4
2008-06-10 06:36:13 51°15.494 2°51.717 278.6 11.7 280 14.5
2008-06-10 06:36:18 51°15.497 2°51.692 277.1 11.7 281 14.5
2008-06-10 06:36:23 51°15.5 2°51.666 276.4 11.7 278 14.5
2008-06-10 06:36:28 51°15.502 2°51.641 275.5 11.7 278 14.6
2008-06-10 06:36:33 51°15.504 2°51.615 274.6 11.7 278 14.6
2008-06-10 06:36:38 51°15.506 2°51.59 274.3 11.7 277 14.6
2008-06-10 06:36:43 51°15.508 2°51.564 274.1 11.7 278 14.6
2008-06-10 06:36:48 51°15.51 2°51.538 274 11.7 275 14.6
2008-06-10 06:36:53 51°15.511 2°51.512 272.5 11.7 275 14.6
2008-06-10 06:36:58 51°15.512 2°51.487 271.6 11.7 273 14.7
2008-06-10 06:37:03 51°15.513 2°51.461 270.3 11.7 272 14.7
2008-06-10 06:37:08 51°15.513 2°51.435 269.1 11.7 272 14.7
2008-06-10 06:37:13 51°15.513 2°51.409 268.2 11.7 270 14.7
2008-06-10 06:37:18 51°15.513 2°51.383 267.2 11.7 270 14.7
2008-06-10 06:37:23 51°15.513 2°51.357 266.5 11.7 269 14.7
2008-06-10 06:37:28 51°15.513 2°51.332 265.7 11.7 269 14.7
2008-06-10 06:37:33 51°15.513 2°51.306 265.6 11.7 269 14.8
2008-06-10 06:37:38 51°15.513 2°51.28 265.4 11.7 269 14.8
2008-06-10 06:37:43 51°15.513 2°51.254 265.1 11.7 270 14.8
2008-06-10 06:37:48 51°15.512 2°51.229 265.6 11.7 269 14.8
2008-06-10 06:37:53 51°15.513 2°51.203 265.8 11.7 270 14.8
2008-06-10 06:37:58 51°15.513 2°51.177 266.3 11.7 270 14.9
2008-06-10 06:38:03 51°15.513 2°51.151 266.5 11.7 272 14.8
2008-06-10 06:38:08 51°15.514 2°51.125 267.2 11.7 272 14.9
2008-06-10 06:38:13 51°15.514 2°51.099 268 11.7 273 14.9
2008-06-10 06:38:18 51°15.516 2°51.073 268.9 11.7 274 14.9
2008-06-10 06:38:23 51°15.517 2°51.047 269.6 11.7 274 14.9
2008-06-10 06:38:28 51°15.518 2°51.021 269.9 11.8 275 14.9
2008-06-10 06:38:33 51°15.519 2°50.995 270.3 11.8 275 14.9
2008-06-10 06:38:38 51°15.521 2°50.969 270.5 11.7 275 14.9
2008-06-10 06:38:43 51°15.522 2°50.944 270.7 11.7 275 14.9
2008-06-10 06:38:48 51°15.524 2°50.918 270.7 11.7 275 15
2008-06-10 06:38:53 51°15.525 2°50.892 270.6 11.7 275 14.9
2008-06-10 06:38:58 51°15.526 2°50.867 270.5 11.7 275 14.9
2008-06-10 06:39:03 51°15.528 2°50.841 270.2 11.7 275 15
2008-06-10 06:39:08 51°15.529 2°50.815 270.5 11.6 274 15
2008-06-10 06:39:13 51°15.53 2°50.79 270.5 11.6 274 15
2008-06-10 06:39:18 51°15.531 2°50.764 270 11.6 274 15
2008-06-10 06:39:23 51°15.532 2°50.738 269.6 11.6 272 15
2008-06-10 06:39:28 51°15.533 2°50.713 268.5 11.6 272 15.1
2008-06-10 06:39:33 51°15.533 2°50.687 268 11.6 272 15
2008-06-10 06:39:38 51°15.533 2°50.661 267.5 11.6 271 15.1
2008-06-10 06:39:43 51°15.534 2°50.636 267 11.6 272 15.1
2008-06-10 06:39:48 51°15.534 2°50.61 267 11.6 271 15.1
2008-06-10 06:39:53 51°15.534 2°50.585 266.7 11.6 271 15
2008-06-10 06:39:58 51°15.535 2°50.559 266.7 11.6 271 15.1
2008-06-10 06:40:03 51°15.535 2°50.533 266.5 11.6 271 15
2008-06-10 06:40:08 51°15.535 2°50.508 266.3 11.6 271 15.1
2008-06-10 06:40:13 51°15.535 2°50.482 266.4 11.6 271 15.1
2008-06-10 06:40:18 51°15.535 2°50.457 266.3 11.6 271 15.1
2008-06-10 06:40:23 51°15.535 2°50.431 266.3 11.6 271 15.1
2008-06-10 06:40:28 51°15.536 2°50.406 266.5 11.5 271 15
2008-06-10 06:40:33 51°15.536 2°50.38 266.8 11.5 271 15.1
2008-06-10 06:40:38 51°15.536 2°50.355 266.6 11.6 271 15.2
2008-06-10 06:40:43 51°15.536 2°50.329 266.7 11.6 269 15.1
2008-06-10 06:40:48 51°15.536 2°50.303 266.4 11.6 268 15
2008-06-10 06:40:53 51°15.535 2°50.278 265.6 11.6 270 15.1
2008-06-10 06:40:58 51°15.535 2°50.252 266 11.6 268 15
2008-06-10 06:41:03 51°15.534 2°50.226 265.9 11.6 267 15.1
2008-06-10 06:41:08 51°15.533 2°50.201 264.6 11.6 267 15.1
2008-06-10 06:41:13 51°15.532 2°50.175 264.1 11.6 266 15.1
2008-06-10 06:41:18 51°15.531 2°50.15 263.4 11.6 266 15.1
2008-06-10 06:41:23 51°15.53 2°50.124 263.2 11.6 266 15.1
2008-06-10 06:41:28 51°15.529 2°50.098 263.3 11.6 266 15.1
2008-06-10 06:41:33 51°15.528 2°50.073 263.4 11.7 267 15.1
2008-06-10 06:41:38 51°15.527 2°50.047 263.5 11.7 267 15.1
2008-06-10 06:41:43 51°15.527 2°50.021 263.9 11.7 267 15.2
2008-06-10 06:41:48 51°15.526 2°49.995 263.9 11.8 267 15.1
2008-06-10 06:41:53 51°15.525 2°49.969 263.7 11.7 268 15.2
2008-06-10 06:41:58 51°15.524 2°49.943 263.5 11.7 268 15.2
2008-06-10 06:42:03 51°15.525 2°49.917 264.8 11.8 271 15.1
2008-06-10 06:42:08 51°15.523 2°49.891 265.5 11.7 266 15.2
2008-06-10 06:42:13 51°15.523 2°49.865 264.3 11.8 270 15.2
2008-06-10 06:42:18 51°15.522 2°49.839 264.3 11.7 266 15.2
2008-06-10 06:42:23 51°15.522 2°49.813 263.7 11.7 268 15.2
2008-06-10 06:42:28 51°15.521 2°49.787 263.2 11.7 267 15.2
2008-06-10 06:42:33 51°15.52 2°49.762 263.4 11.7 268 15.2
2008-06-10 06:42:38 51°15.519 2°49.736 263.1 11.6 267 15.2
2008-06-10 06:42:43 51°15.519 2°49.71 262.6 11.7 272 15.2
2008-06-10 06:42:48 51°15.521 2°49.685 265.5 11.7 277 15.2
2008-06-10 06:42:53 51°15.524 2°49.659 270.1 11.6 279 15.2
2008-06-10 06:42:58 51°15.528 2°49.634 274.7 11.7 284 15.2
2008-06-10 06:43:03 51°15.532 2°49.609 277.7 11.8 285 15.1
2008-06-10 06:43:08 51°15.537 2°49.584 280.2 11.8 289 15.2
2008-06-10 06:43:13 51°15.542 2°49.559 282.5 11.8 288 15.3
2008-06-10 06:43:18 51°15.548 2°49.534 283.3 11.9 291 15.3
2008-06-10 06:43:23 51°15.554 2°49.51 284.9 11.9 291 15.2
2008-06-10 06:43:28 51°15.56 2°49.486 286.5 11.9 294 15.2
2008-06-10 06:43:33 51°15.567 2°49.462 287.3 11.9 294 15.1
2008-06-10 06:43:38 51°15.574 2°49.438 288.3 11.9 294 15
2008-06-10 06:43:43 51°15.58 2°49.414 289.1 11.8 293 15
2008-06-10 06:43:48 51°15.586 2°49.39 289 11.8 292 14.8
2008-06-10 06:43:53 51°15.593 2°49.366 288.7 11.9 291 14.7
2008-06-10 06:43:58 51°15.598 2°49.341 287.8 11.8 289 14.5
2008-06-10 06:44:03 51°15.603 2°49.316 286.6 11.9 289 14.4
2008-06-10 06:44:08 51°15.608 2°49.291 285.8 11.9 287 14.2
2008-06-10 06:44:13 51°15.613 2°49.266 284.6 11.9 287 14
2008-06-10 06:44:18 51°15.618 2°49.241 284.2 11.9 287 13.8
2008-06-10 06:44:23 51°15.623 2°49.216 283.9 11.9 287 13.6
2008-06-10 06:44:28 51°15.627 2°49.191 283.7 11.9 286 13.4
2008-06-10 06:44:33 51°15.632 2°49.166 283.5 11.9 287 13.3
2008-06-10 06:44:38 51°15.637 2°49.14 283.5 12 287 13.1
2008-06-10 06:44:43 51°15.642 2°49.115 283.6 12 288 13.1
2008-06-10 06:44:48 51°15.647 2°49.09 284.1 12 287 13
2008-06-10 06:44:53 51°15.652 2°49.064 284.2 12 288 12.9
2008-06-10 06:44:58 51°15.657 2°49.039 284 12 288 12.8
2008-06-10 06:45:03 51°15.662 2°49.014 284.2 12 287 12.8
2008-06-10 06:45:08 51°15.667 2°48.989 284.2 12 287 12.7
2008-06-10 06:45:13 51°15.672 2°48.963 284 12 287 12.7
2008-06-10 06:45:18 51°15.677 2°48.938 283.7 11.9 287 12.7
2008-06-10 06:45:23 51°15.682 2°48.912 283.6 12 287 12.7
2008-06-10 06:45:28 51°15.687 2°48.887 283.6 12 288 12.7
2008-06-10 06:45:33 51°15.692 2°48.862 283.7 12 287 12.8
2008-06-10 06:45:38 51°15.696 2°48.836 283.8 12 287 12.8
2008-06-10 06:45:43 51°15.701 2°48.811 283.5 12 287 12.9
2008-06-10 06:45:48 51°15.706 2°48.786 283.3 12 287 12.9
2008-06-10 06:45:53 51°15.711 2°48.76 283.3 12 286 13
2008-06-10 06:45:58 51°15.715 2°48.735 282.9 12 285 13.1
2008-06-10 06:46:03 51°15.719 2°48.709 282 12 284 13.1
2008-06-10 06:46:08 51°15.723 2°48.683 281.1 11.9 284 13.2
2008-06-10 06:46:13 51°15.727 2°48.658 280.9 11.9 283 13.3
2008-06-10 06:46:18 51°15.73 2°48.632 279.6 11.9 283 13.3
2008-06-10 06:46:23 51°15.734 2°48.606 278.8 11.9 280 13.3
2008-06-10 06:46:28 51°15.737 2°48.58 277.9 11.9 281 13.5
2008-06-10 06:46:33 51°15.74 2°48.554 277.4 11.9 280 13.5
2008-06-10 06:46:38 51°15.743 2°48.528 277 11.9 281 13.6
2008-06-10 06:46:43 51°15.746 2°48.503 276.7 11.9 281 13.7
2008-06-10 06:46:48 51°15.749 2°48.477 276.8 11.9 281 13.7
2008-06-10 06:46:53 51°15.752 2°48.451 276.9 11.9 281 13.9
2008-06-10 06:46:58 51°15.755 2°48.425 277.1 11.8 281 13.9
2008-06-10 06:47:03 51°15.758 2°48.399 277.1 11.9 281 13.9
2008-06-10 06:47:08 51°15.761 2°48.373 277.2 11.9 279 14.1
2008-06-10 06:47:13 51°15.764 2°48.348 276.7 11.9 281 14.1
2008-06-10 06:47:18 51°15.766 2°48.322 276.8 11.8 276 14.3
2008-06-10 06:47:23 51°15.768 2°48.296 274.7 11.8 277 14.4
2008-06-10 06:47:28 51°15.77 2°48.27 274 11.8 275 14.5
2008-06-10 06:47:33 51°15.771 2°48.243 272.9 11.9 274 14.6
2008-06-10 06:47:38 51°15.772 2°48.217 271.3 11.8 273 14.7
2008-06-10 06:47:43 51°15.772 2°48.191 270.6 11.8 271 14.8
2008-06-10 06:47:48 51°15.771 2°48.165 268.6 11.7 266 14.9
2008-06-10 06:47:53 51°15.771 2°48.14 265.1 11.7 267 15
2008-06-10 06:47:58 51°15.769 2°48.114 263.8 11.7 264 15.1
2008-06-10 06:48:03 51°15.767 2°48.088 262.8 11.8 264 15.2
2008-06-10 06:48:08 51°15.766 2°48.062 261.4 11.8 264 15.3
2008-06-10 06:48:13 51°15.763 2°48.037 260.8 11.7 262 15.4
2008-06-10 06:48:18 51°15.761 2°48.011 259.8 11.8 263 15.4
2008-06-10 06:48:23 51°15.759 2°47.985 259.5 11.8 263 15.5
2008-06-10 06:48:28 51°15.757 2°47.959 259.5 11.8 263 15.6
2008-06-10 06:48:33 51°15.756 2°47.933 260 11.8 265 15.7
2008-06-10 06:48:38 51°15.754 2°47.907 261 11.8 264 15.7
2008-06-10 06:48:43 51°15.753 2°47.881 261.1 11.8 267 15.8
2008-06-10 06:48:48 51°15.752 2°47.856 262.3 11.7 266 15.9
2008-06-10 06:48:53 51°15.75 2°47.83 262.6 11.8 265 16
2008-06-10 06:48:58 51°15.75 2°47.804 262.1 11.8 266 16
2008-06-10 06:49:03 51°15.748 2°47.778 262.3 11.7 267 16.2
2008-06-10 06:49:08 51°15.748 2°47.752 263.1 11.7 266 16.2
2008-06-10 06:49:13 51°15.747 2°47.726 263.4 11.7 266 16.3
2008-06-10 06:49:18 51°15.746 2°47.7 263.2 11.6 266 16.3
2008-06-10 06:49:23 51°15.744 2°47.675 262.9 11.6 266 16.4
2008-06-10 06:49:28 51°15.743 2°47.649 262.6 11.6 265 16.4
2008-06-10 06:49:33 51°15.741 2°47.623 261.8 11.7 265 16.5
2008-06-10 06:49:38 51°15.74 2°47.598 261.2 11.6 264 16.5
2008-06-10 06:49:43 51°15.738 2°47.572 260.6 11.7 263 16.5
2008-06-10 06:49:48 51°15.736 2°47.547 259.9 11.7 263 16.5
2008-06-10 06:49:53 51°15.734 2°47.521 259.7 11.7 264 16.6
2008-06-10 06:49:58 51°15.733 2°47.495 260.4 11.6 266 16.7
2008-06-10 06:50:03 51°15.731 2°47.47 261.5 11.6 265 16.8
2008-06-10 06:50:08 51°15.731 2°47.444 261.9 11.6 267 16.8
2008-06-10 06:50:13 51°15.729 2°47.418 262.5 11.6 265 16.9
2008-06-10 06:50:18 51°15.729 2°47.393 262.6 11.6 268 17
2008-06-10 06:50:23 51°15.727 2°47.367 263.2 11.6 266 17.1
2008-06-10 06:50:28 51°15.727 2°47.342 263.3 11.6 267 17.2
2008-06-10 06:50:33 51°15.726 2°47.316 263.1 11.6 267 17.2
2008-06-10 06:50:38 51°15.725 2°47.291 263.2 11.6 267 17.2
2008-06-10 06:50:43 51°15.724 2°47.265 263.1 11.6 266 17.2
2008-06-10 06:50:48 51°15.723 2°47.24 263 11.6 266 17.3
2008-06-10 06:50:53 51°15.722 2°47.214 262.8 11.6 266 17.4
2008-06-10 06:50:58 51°15.72 2°47.188 262.5 11.6 266 17.3
2008-06-10 06:51:03 51°15.719 2°47.163 262.1 11.6 266 17.3
2008-06-10 06:51:08 51°15.718 2°47.137 262.3 11.5 265 17.4
2008-06-10 06:51:13 51°15.717 2°47.112 262.5 11.6 266 17.4
2008-06-10 06:51:18 51°15.715 2°47.087 262.1 11.6 264 17.5
2008-06-10 06:51:23 51°15.714 2°47.061 261.3 11.6 264 17.5
2008-06-10 06:51:28 51°15.712 2°47.036 260.6 11.6 263 17.5
2008-06-10 06:51:33 51°15.71 2°47.01 260.3 11.5 264 17.5
2008-06-10 06:51:38 51°15.708 2°46.985 260.4 11.5 263 17.6
2008-06-10 06:51:43 51°15.706 2°46.96 259.9 11.5 263 17.6
2008-06-10 06:51:48 51°15.704 2°46.934 259.3 11.6 264 17.6
2008-06-10 06:51:53 51°15.702 2°46.909 259.7 11.6 264 17.6
2008-06-10 06:51:58 51°15.701 2°46.884 260.5 11.6 264 17.7
2008-06-10 06:52:03 51°15.699 2°46.858 260.8 11.6 265 17.9
2008-06-10 06:52:08 51°15.698 2°46.832 261.6 11.6 266 18
2008-06-10 06:52:13 51°15.697 2°46.807 262.1 11.6 265 18
2008-06-10 06:52:18 51°15.696 2°46.781 261.7 11.6 266 18
2008-06-10 06:52:23 51°15.694 2°46.756 262 11.6 265 18.1
2008-06-10 06:52:28 51°15.693 2°46.73 262 11.6 266 18.2
2008-06-10 06:52:33 51°15.691 2°46.704 262 11.6 265 18.2
2008-06-10 06:52:38 51°15.69 2°46.679 261.9 11.6 266 18.3
2008-06-10 06:52:43 51°15.689 2°46.653 261.9 11.6 265 18.4
2008-06-10 06:52:48 51°15.688 2°46.628 261.7 11.6 266 18.4
2008-06-10 06:52:53 51°15.686 2°46.603 262 11.5 264 18.5
2008-06-10 06:52:58 51°15.684 2°46.577 261.3 11.5 264 18.5
2008-06-10 06:53:03 51°15.683 2°46.552 260.4 11.5 264 18.7
2008-06-10 06:53:08 51°15.681 2°46.527 259.9 11.4 263 18.7
2008-06-10 06:53:13 51°15.678 2°46.502 259.4 11.4 261 18.7
2008-06-10 06:53:18 51°15.676 2°46.477 258.6 11.4 261 18.7
2008-06-10 06:53:23 51°15.674 2°46.452 258.1 11.4 261 18.9
2008-06-10 06:53:28 51°15.671 2°46.427 257.9 11.4 261 18.8
2008-06-10 06:53:33 51°15.669 2°46.402 257.9 11.5 262 18.9
2008-06-10 06:53:38 51°15.666 2°46.377 258.3 11.5 262 18.9
2008-06-10 06:53:43 51°15.664 2°46.352 258.9 11.5 262 19
2008-06-10 06:53:48 51°15.662 2°46.327 258.8 11.5 263 19.1
2008-06-10 06:53:53 51°15.66 2°46.302 259 11.4 262 19
2008-06-10 06:53:58 51°15.658 2°46.277 258.8 11.4 263 19
2008-06-10 06:54:03 51°15.656 2°46.252 259.1 11.4 265 19.2
2008-06-10 06:54:08 51°15.655 2°46.227 260.4 11.4 264 19.2
2008-06-10 06:54:13 51°15.654 2°46.202 261.1 11.4 266 19.3
2008-06-10 06:54:18 51°15.653 2°46.176 261.9 11.3 265 19.3
2008-06-10 06:54:23 51°15.651 2°46.152 262.2 11.3 266 19.4
2008-06-10 06:54:28 51°15.65 2°46.126 262.6 11.4 266 19.3
2008-06-10 06:54:33 51°15.649 2°46.101 262.6 11.4 266 19.3
2008-06-10 06:54:38 51°15.648 2°46.076 262.5 11.4 266 19.4
2008-06-10 06:54:43 51°15.647 2°46.051 262.6 11.4 265 19.4
2008-06-10 06:54:48 51°15.646 2°46.026 262.1 11.4 267 19.4
2008-06-10 06:54:53 51°15.645 2°46 262.6 11.4 266 19.5
2008-06-10 06:54:58 51°15.644 2°45.975 262.8 11.4 266 19.5
2008-06-10 06:55:03 51°15.642 2°45.95 262.6 11.4 265 19.5
2008-06-10 06:55:08 51°15.641 2°45.925 261.7 11.4 264 19.4
2008-06-10 06:55:13 51°15.639 2°45.9 260.6 11.4 263 19.5
2008-06-10 06:55:18 51°15.637 2°45.875 259.9 11.4 264 19.5
2008-06-10 06:55:23 51°15.635 2°45.85 259.9 11.4 262 19.6
2008-06-10 06:55:28 51°15.633 2°45.825 259.5 11.4 262 19.5
2008-06-10 06:55:33 51°15.631 2°45.8 259.1 11.4 262 19.6
2008-06-10 06:55:38 51°15.629 2°45.775 259 11.4 262 19.4
2008-06-10 06:55:43 51°15.627 2°45.75 259 11.4 262 19.4
2008-06-10 06:55:48 51°15.624 2°45.725 259 11.4 262 19.5
2008-06-10 06:55:53 51°15.622 2°45.7 258.9 11.5 262 19.5
2008-06-10 06:55:58 51°15.62 2°45.675 259 11.4 262 19.5
2008-06-10 06:56:03 51°15.618 2°45.65 259.1 11.4 262 19.4
2008-06-10 06:56:08 51°15.616 2°45.625 259.2 11.4 262 19.5
2008-06-10 06:56:13 51°15.613 2°45.6 259.3 11.4 262 19.3
2008-06-10 06:56:18 51°15.611 2°45.575 259.1 11.4 263 19.2
2008-06-10 06:56:23 51°15.609 2°45.55 259.7 11.4 262 19.3
2008-06-10 06:56:28 51°15.607 2°45.525 259.5 11.4 263 19.1
2008-06-10 06:56:33 51°15.605 2°45.499 259.4 11.4 263 19.1
2008-06-10 06:56:38 51°15.603 2°45.474 259.7 11.4 263 19
2008-06-10 06:56:43 51°15.601 2°45.449 259.9 11.4 263 19
2008-06-10 06:56:48 51°15.599 2°45.424 260 11.4 263 18.9
2008-06-10 06:56:53 51°15.597 2°45.399 260 11.4 263 18.9
2008-06-10 06:56:58 51°15.595 2°45.374 260 11.4 263 18.8
2008-06-10 06:57:03 51°15.594 2°45.349 260.1 11.5 264 18.7
2008-06-10 06:57:08 51°15.592 2°45.324 260.5 11.5 264 18.5
2008-06-10 06:57:13 51°15.591 2°45.298 261.3 11.5 266 18.4
2008-06-10 06:57:18 51°15.589 2°45.273 262.1 11.5 265 17.9
2008-06-10 06:57:23 51°15.589 2°45.248 262.6 11.5 267 17.9
2008-06-10 06:57:28 51°15.587 2°45.222 263.4 11.5 265 18
2008-06-10 06:57:33 51°15.586 2°45.197 263.1 11.5 266 17.9
2008-06-10 06:57:38 51°15.584 2°45.172 262.5 11.5 263 17.7
2008-06-10 06:57:43 51°15.583 2°45.147 261.4 11.5 264 17.6
2008-06-10 06:57:48 51°15.581 2°45.122 260.9 11.4 262 17.7
2008-06-10 06:57:53 51°15.579 2°45.096 260.3 11.5 264 17.8
2008-06-10 06:57:58 51°15.577 2°45.071 260.3 11.4 262 16.6
2008-06-10 06:58:03 51°15.575 2°45.046 259.7 11.4 263 16.6
2008-06-10 06:58:08 51°15.573 2°45.021 259.7 11.4 263 16.9
2008-06-10 06:58:13 51°15.571 2°44.996 260.1 11.4 263 15.5
2008-06-10 06:58:18 51°15.57 2°44.971 260.2 11.5 263 15.6
2008-06-10 06:58:23 51°15.567 2°44.946 260.4 11.4 263 16.1
2008-06-10 06:58:28 51°15.566 2°44.921 260.1 11.4 263 16.2
2008-06-10 06:58:33 51°15.564 2°44.896 259.9 11.4 263 16.4
2008-06-10 06:58:38 51°15.561 2°44.871 260.2 11.4 262 16.7
2008-06-10 06:58:43 51°15.56 2°44.846 259.7 11.4 264 16.6
2008-06-10 06:58:48 51°15.558 2°44.821 260.1 11.4 263 15.2
2008-06-10 06:58:53 51°15.556 2°44.796 260.3 11.4 265 14.6
2008-06-10 06:58:58 51°15.555 2°44.771 261 11.4 264 15.4
2008-06-10 06:59:03 51°15.553 2°44.745 261 11.4 265 15.6
2008-06-10 06:59:08 51°15.552 2°44.72 261.4 11.4 263 15.8
2008-06-10 06:59:13 51°15.55 2°44.695 260.9 11.4 264 15.9
2008-06-10 06:59:18 51°15.548 2°44.67 260.6 11.4 263 15.9
2008-06-10 06:59:23 51°15.546 2°44.645 260.2 11.4 264 15.8
2008-06-10 06:59:28 51°15.544 2°44.62 260.4 11.4 263 15.2
2008-06-10 06:59:33 51°15.542 2°44.595 260.4 11.4 264 15.1
2008-06-10 06:59:38 51°15.541 2°44.57 260.6 11.5 264 14
2008-06-10 06:59:43 51°15.539 2°44.545 261.2 11.4 264 14.7
2008-06-10 06:59:48 51°15.537 2°44.52 261.2 11.4 263 15.1
2008-06-10 06:59:53 51°15.535 2°44.495 260.9 11.5 264 14.8
2008-06-10 06:59:58 51°15.534 2°44.469 261.2 11.5 266 14.8
2008-06-10 07:00:03 51°15.533 2°44.444 262.1 11.5 265 15
2008-06-10 07:00:08 51°15.532 2°44.418 262.6 11.5 267 15
2008-06-10 07:00:13 51°15.531 2°44.393 263.3 11.5 266 15.1
2008-06-10 07:00:18 51°15.53 2°44.368 263.6 11.5 267 15
2008-06-10 07:00:23 51°15.529 2°44.342 264 11.5 267 14.9
2008-06-10 07:00:28 51°15.528 2°44.317 264 11.6 267 14.9
2008-06-10 07:00:33 51°15.528 2°44.291 264 11.6 267 14.8
2008-06-10 07:00:38 51°15.526 2°44.266 263.9 11.6 266 14.7
2008-06-10 07:00:43 51°15.525 2°44.24 263.6 11.6 267 14.7
2008-06-10 07:00:48 51°15.525 2°44.214 263.8 11.6 266 14.8
2008-06-10 07:00:53 51°15.524 2°44.189 263.8 11.6 267 14.9
2008-06-10 07:00:58 51°15.523 2°44.163 264 11.6 267 14.8
2008-06-10 07:01:03 51°15.522 2°44.138 264 11.6 266 14.7
2008-06-10 07:01:08 51°15.521 2°44.112 263.5 11.6 266 14.7
2008-06-10 07:01:13 51°15.519 2°44.087 263.1 11.6 265 14.7
2008-06-10 07:01:18 51°15.518 2°44.061 262.6 11.6 264 14.6
2008-06-10 07:01:23 51°15.516 2°44.036 261.6 11.6 263 14.7
2008-06-10 07:01:28 51°15.513 2°44.01 260.6 11.6 262 14.7
2008-06-10 07:01:33 51°15.511 2°43.985 259.8 11.6 262 14.7
2008-06-10 07:01:38 51°15.509 2°43.96 259 11.5 261 14.7
2008-06-10 07:01:43 51°15.506 2°43.935 258.5 11.5 261 14.8
2008-06-10 07:01:48 51°15.504 2°43.909 258.3 11.6 261 14.7
2008-06-10 07:01:53 51°15.501 2°43.884 258.3 11.6 261 14.7
2008-06-10 07:01:58 51°15.499 2°43.859 258 11.6 262 14.8
2008-06-10 07:02:03 51°15.496 2°43.833 258.4 11.5 262 14.8
2008-06-10 07:02:08 51°15.494 2°43.808 258.7 11.5 262 14.6
2008-06-10 07:02:13 51°15.492 2°43.783 259 11.6 262 14.9
2008-06-10 07:02:18 51°15.49 2°43.757 259.2 11.6 262 15
2008-06-10 07:02:23 51°15.487 2°43.732 259.3 11.6 262 15.1
2008-06-10 07:02:28 51°15.485 2°43.706 259.2 11.6 261 15.1
2008-06-10 07:02:33 51°15.483 2°43.681 259.1 11.7 262 15.1
2008-06-10 07:02:38 51°15.48 2°43.655 259 11.7 261 15.1
2008-06-10 07:02:43 51°15.478 2°43.629 258.8 11.7 263 15.2
2008-06-10 07:02:48 51°15.476 2°43.604 259.7 11.7 261 15.1
2008-06-10 07:02:53 51°15.474 2°43.578 259.5 11.7 262 15.2
2008-06-10 07:02:58 51°15.471 2°43.553 259 11.7 262 15.2
2008-06-10 07:03:03 51°15.469 2°43.527 259 11.8 262 14.5
2008-06-10 07:03:08 51°15.467 2°43.501 259 11.7 262 14.2
2008-06-10 07:03:13 51°15.465 2°43.475 259 11.7 262 14.7
2008-06-10 07:03:18 51°15.462 2°43.45 259.2 11.7 262 15.1
2008-06-10 07:03:23 51°15.46 2°43.424 259.1 11.8 262 15.1
2008-06-10 07:03:28 51°15.458 2°43.398 259.5 11.8 263 15.2
2008-06-10 07:03:33 51°15.456 2°43.373 259.7 11.7 264 15.1
2008-06-10 07:03:38 51°15.455 2°43.347 260.3 11.7 265 15.2
2008-06-10 07:03:43 51°15.453 2°43.321 261.3 11.8 265 14.9
2008-06-10 07:03:48 51°15.452 2°43.295 262.2 11.7 265 15
2008-06-10 07:03:53 51°15.451 2°43.269 262.5 11.7 265 14.9
2008-06-10 07:03:58 51°15.45 2°43.243 262.6 11.7 265 14.9
2008-06-10 07:04:03 51°15.448 2°43.217 262.6 11.7 265 14.4
2008-06-10 07:04:08 51°15.446 2°43.191 262.5 11.7 262 14.8
2008-06-10 07:04:13 51°15.444 2°43.166 261.1 11.7 263 15
2008-06-10 07:04:18 51°15.442 2°43.14 260.5 11.7 261 14.9
2008-06-10 07:04:23 51°15.44 2°43.115 259.6 11.7 262 14.2
2008-06-10 07:04:28 51°15.437 2°43.089 259.3 11.7 260 13.9
2008-06-10 07:04:33 51°15.434 2°43.063 258.9 11.7 262 14.4
2008-06-10 07:04:38 51°15.432 2°43.038 258.6 11.7 260 14.5
2008-06-10 07:04:43 51°15.429 2°43.012 258.3 11.7 260 13.9
2008-06-10 07:04:48 51°15.426 2°42.987 257.6 11.7 259 13.2
2008-06-10 07:04:53 51°15.423 2°42.961 257.3 11.6 261 13.7
2008-06-10 07:04:58 51°15.421 2°42.936 257.8 11.7 260 13.6
2008-06-10 07:05:03 51°15.418 2°42.91 257.7 11.7 261 13.7
2008-06-10 07:05:08 51°15.415 2°42.885 257.8 11.7 260 13.8
2008-06-10 07:05:13 51°15.413 2°42.859 257.9 11.7 260 14.2
2008-06-10 07:05:18 51°15.41 2°42.834 257.9 11.7 259 14.4
2008-06-10 07:05:23 51°15.407 2°42.808 257.3 11.8 260 14.5
2008-06-10 07:05:28 51°15.404 2°42.783 257.3 11.8 259 14.3
2008-06-10 07:05:33 51°15.401 2°42.757 257.2 11.8 261 13.9
2008-06-10 07:05:38 51°15.398 2°42.731 257.6 11.8 260 13.2
2008-06-10 07:05:43 51°15.395 2°42.706 257.6 11.7 260 12.8
2008-06-10 07:05:48 51°15.392 2°42.68 257.6 11.8 260 11.9
2008-06-10 07:05:53 51°15.39 2°42.654 257.4 11.8 260 13.8
2008-06-10 07:05:58 51°15.386 2°42.629 257.7 11.8 259 13.9
2008-06-10 07:06:03 51°15.383 2°42.603 257.3 11.8 259 12.9
2008-06-10 07:06:08 51°15.38 2°42.577 257 11.8 259 13.5
2008-06-10 07:06:13 51°15.377 2°42.552 257 11.8 259 13.5
2008-06-10 07:06:18 51°15.374 2°42.526 256.8 11.8 260 13.2
2008-06-10 07:06:23 51°15.372 2°42.5 257.1 11.8 259 11.8
2008-06-10 07:06:28 51°15.369 2°42.475 257.4 11.7 260 13.4
2008-06-10 07:06:33 51°15.366 2°42.449 257.8 11.8 259 13.7
2008-06-10 07:06:38 51°15.363 2°42.423 257.6 11.9 260 13.4
2008-06-10 07:06:43 51°15.36 2°42.398 257.3 11.8 259 13
2008-06-10 07:06:48 51°15.357 2°42.372 257.3 11.8 259 12
2008-06-10 07:06:53 51°15.354 2°42.347 257 11.8 259 13.6
2008-06-10 07:06:58 51°15.35 2°42.321 256.8 11.9 259 13.7
2008-06-10 07:07:03 51°15.348 2°42.295 256.8 11.8 260 13.3
2008-06-10 07:07:08 51°15.344 2°42.27 257.2 11.8 259 12.8
2008-06-10 07:07:13 51°15.342 2°42.244 257 11.8 262 12.1
2008-06-10 07:07:18 51°15.34 2°42.218 258.3 11.7 261 12.2
2008-06-10 07:07:23 51°15.337 2°42.192 259 11.8 262 13.4
2008-06-10 07:07:28 51°15.335 2°42.167 259 11.8 263 12.9
2008-06-10 07:07:33 51°15.333 2°42.141 259.9 11.8 261 12
2008-06-10 07:07:38 51°15.33 2°42.115 259.4 11.8 262 12.7
2008-06-10 07:07:43 51°15.328 2°42.089 259.3 11.8 262 12.5
2008-06-10 07:07:48 51°15.326 2°42.063 259.7 11.9 262 12.4
2008-06-10 07:07:53 51°15.324 2°42.037 259.9 11.9 264 12.7
2008-06-10 07:07:58 51°15.322 2°42.011 260.6 11.8 262 12.6
2008-06-10 07:08:03 51°15.32 2°41.985 260.3 11.9 263 12.4
2008-06-10 07:08:08 51°15.318 2°41.959 260.2 11.8 262 12.5
2008-06-10 07:08:13 51°15.315 2°41.933 260.1 11.8 262 12.5
2008-06-10 07:08:18 51°15.313 2°41.907 259.6 11.9 262 12.8
2008-06-10 07:08:23 51°15.311 2°41.881 259.5 11.9 262 12.9
2008-06-10 07:08:28 51°15.309 2°41.855 259.2 11.9 263 13
2008-06-10 07:08:33 51°15.306 2°41.829 259.7 11.9 262 12.9
2008-06-10 07:08:38 51°15.305 2°41.803 259.8 11.9 263 12.9
2008-06-10 07:08:43 51°15.302 2°41.777 260.1 11.9 263 13.1
2008-06-10 07:08:48 51°15.3 2°41.75 260.3 11.9 262 13
2008-06-10 07:08:53 51°15.298 2°41.724 259.7 11.9 261 13.2
2008-06-10 07:08:58 51°15.295 2°41.699 258.4 11.9 260 13.2
2008-06-10 07:09:03 51°15.292 2°41.673 257.6 11.9 260 13.3
2008-06-10 07:09:08 51°15.289 2°41.647 257.1 11.8 259 13.3
2008-06-10 07:09:13 51°15.286 2°41.621 256.5 11.8 259 13
2008-06-10 07:09:18 51°15.283 2°41.596 256.1 11.9 260 13.1
2008-06-10 07:09:23 51°15.28 2°41.57 256.3 11.8 259 13.3
2008-06-10 07:09:28 51°15.277 2°41.545 256.1 11.8 259 13.4
2008-06-10 07:09:33 51°15.273 2°41.519 255.9 11.8 259 13.4
2008-06-10 07:09:38 51°15.27 2°41.494 255.8 11.7 259 13.2
2008-06-10 07:09:43 51°15.267 2°41.468 256.1 11.7 259 13.2
2008-06-10 07:09:48 51°15.264 2°41.443 256.1 11.8 259 13.3
2008-06-10 07:09:53 51°15.261 2°41.417 256 11.7 260 13.2
2008-06-10 07:09:58 51°15.258 2°41.392 256.3 11.7 259 13.1
2008-06-10 07:10:03 51°15.256 2°41.366 256.4 11.7 260 12.9
2008-06-10 07:10:08 51°15.253 2°41.341 256.7 11.7 259 12.8
2008-06-10 07:10:13 51°15.25 2°41.315 256.7 11.7 261 13
2008-06-10 07:10:18 51°15.248 2°41.289 257 11.7 260 13.1
2008-06-10 07:10:23 51°15.245 2°41.264 257.4 11.7 262 13
2008-06-10 07:10:28 51°15.242 2°41.238 257.6 11.7 260 13.1
2008-06-10 07:10:33 51°15.24 2°41.213 257.5 11.7 264 13.1
2008-06-10 07:10:38 51°15.239 2°41.187 259.2 11.7 263 13
2008-06-10 07:10:43 51°15.237 2°41.161 260.4 11.7 265 12.9
2008-06-10 07:10:48 51°15.236 2°41.135 261.3 11.8 266 13.2
2008-06-10 07:10:53 51°15.236 2°41.109 262.5 11.8 269 13.2
2008-06-10 07:10:58 51°15.235 2°41.082 264.1 11.9 268 13.2
2008-06-10 07:11:03 51°15.235 2°41.056 264.8 11.9 270 13.1
2008-06-10 07:11:08 51°15.235 2°41.03 265.7 11.9 270 13.3
2008-06-10 07:11:13 51°15.235 2°41.004 266.3 11.9 270 13.4
2008-06-10 07:11:18 51°15.235 2°40.977 266.5 11.9 270 13.4
2008-06-10 07:11:23 51°15.235 2°40.951 266.9 11.8 270 13.6
2008-06-10 07:11:28 51°15.235 2°40.925 266.8 11.9 271 13.4
2008-06-10 07:11:33 51°15.235 2°40.899 266.8 11.9 271 13.6
2008-06-10 07:11:38 51°15.235 2°40.873 267 11.9 271 13.6
2008-06-10 07:11:43 51°15.236 2°40.847 267 11.8 271 13.7
2008-06-10 07:11:48 51°15.236 2°40.821 267 11.8 270 13.5
2008-06-10 07:11:53 51°15.236 2°40.794 267 11.8 270 13.5
2008-06-10 07:11:58 51°15.236 2°40.768 266.8 11.8 270 13.6
2008-06-10 07:12:03 51°15.235 2°40.742 266.6 11.8 269 13.5
2008-06-10 07:12:08 51°15.235 2°40.716 266.1 11.8 270 13.5
2008-06-10 07:12:13 51°15.235 2°40.69 266.1 11.8 269 13.5
2008-06-10 07:12:18 51°15.234 2°40.664 265.9 11.8 268 13.6
2008-06-10 07:12:23 51°15.234 2°40.638 265.5 11.8 269 13.4
2008-06-10 07:12:28 51°15.233 2°40.612 265.5 11.8 267 13.5
2008-06-10 07:12:33 51°15.233 2°40.586 264.8 11.9 270 13.5
2008-06-10 07:12:38 51°15.233 2°40.56 265.3 11.9 268 13.6
2008-06-10 07:12:43 51°15.232 2°40.533 265.5 11.9 269 14
2008-06-10 07:12:48 51°15.232 2°40.507 265.5 11.9 268 14.1
2008-06-10 07:12:53 51°15.231 2°40.481 265.7 11.9 270 13.9
2008-06-10 07:12:58 51°15.231 2°40.455 266.2 11.9 268 14
2008-06-10 07:13:03 51°15.23 2°40.428 265.6 11.9 269 14.2
2008-06-10 07:13:08 51°15.23 2°40.402 265.5 11.9 268 14.3
2008-06-10 07:13:13 51°15.229 2°40.376 265.5 11.9 268 14.4
2008-06-10 07:13:18 51°15.229 2°40.35 265.5 11.9 267 15
2008-06-10 07:13:23 51°15.228 2°40.323 265.1 12 268 15
2008-06-10 07:13:28 51°15.227 2°40.297 265 11.9 268 14.9
2008-06-10 07:13:33 51°15.227 2°40.271 265.2 11.9 269 14.9
2008-06-10 07:13:38 51°15.226 2°40.244 265.6 11.9 268 14.8
2008-06-10 07:13:43 51°15.225 2°40.218 265.5 12 267 15
2008-06-10 07:13:48 51°15.224 2°40.192 264.6 11.9 267 15.2
2008-06-10 07:13:53 51°15.223 2°40.165 264.3 11.9 266 15.5
2008-06-10 07:13:58 51°15.222 2°40.139 263.9 11.9 265 15.7
2008-06-10 07:14:03 51°15.22 2°40.113 263.1 11.9 265 15.8
2008-06-10 07:14:08 51°15.219 2°40.087 262.6 11.9 265 15.9
2008-06-10 07:14:13 51°15.217 2°40.061 262.1 11.9 265 16
2008-06-10 07:14:18 51°15.216 2°40.035 261.9 11.9 265 16.3
2008-06-10 07:14:23 51°15.214 2°40.008 261.9 11.9 264 16.6
2008-06-10 07:14:28 51°15.212 2°39.982 261.9 11.9 264 16.8
2008-06-10 07:14:33 51°15.21 2°39.956 261.6 11.9 264 17.1
2008-06-10 07:14:38 51°15.209 2°39.93 261.3 11.9 265 17.3
2008-06-10 07:14:43 51°15.208 2°39.903 262.4 11.9 266 17.2
2008-06-10 07:14:48 51°15.207 2°39.877 263.7 12 267 17.2
2008-06-10 07:14:53 51°15.206 2°39.851 264.4 12 268 17.2
2008-06-10 07:14:58 51°15.206 2°39.824 265.2 12 267 17.5
2008-06-10 07:15:03 51°15.205 2°39.797 265.4 12 268 18
2008-06-10 07:15:08 51°15.204 2°39.771 265.6 12 267 18.2
2008-06-10 07:15:13 51°15.204 2°39.744 265.7 12 269 18.1
2008-06-10 07:15:18 51°15.203 2°39.718 266 12 268 18.2
2008-06-10 07:15:23 51°15.203 2°39.691 266.1 12 269 18.4
2008-06-10 07:15:28 51°15.202 2°39.665 265.9 12 266 18.7
2008-06-10 07:15:33 51°15.201 2°39.638 264.8 12 266 18.6
2008-06-10 07:15:38 51°15.2 2°39.612 264.1 12 266 18.7
2008-06-10 07:15:43 51°15.198 2°39.585 264 12 265 18.4
2008-06-10 07:15:48 51°15.197 2°39.559 263.4 12 267 18.8
2008-06-10 07:15:53 51°15.196 2°39.533 263.6 12 266 19
2008-06-10 07:15:58 51°15.195 2°39.506 263.7 11.9 266 18.9
2008-06-10 07:16:03 51°15.193 2°39.48 263.4 11.9 265 19.1
2008-06-10 07:16:08 51°15.192 2°39.454 263.1 11.9 265 19
2008-06-10 07:16:13 51°15.191 2°39.428 263.1 11.9 265 19.2
2008-06-10 07:16:18 51°15.189 2°39.401 263.1 11.9 265 19.3
2008-06-10 07:16:23 51°15.188 2°39.375 263.4 11.9 264 19.5
2008-06-10 07:16:28 51°15.186 2°39.349 263.1 12 265 19.5
2008-06-10 07:16:33 51°15.185 2°39.322 263.1 12 265 19.4
2008-06-10 07:16:38 51°15.184 2°39.296 263.2 12 265 19.5
2008-06-10 07:16:43 51°15.182 2°39.27 263.2 12 265 19.6
2008-06-10 07:16:48 51°15.181 2°39.243 262.7 12 266 19.6
2008-06-10 07:16:53 51°15.179 2°39.217 263 12 265 19.7
2008-06-10 07:16:58 51°15.178 2°39.191 262.8 11.9 265 19.6
2008-06-10 07:17:03 51°15.177 2°39.164 262.9 11.9 265 19.6
2008-06-10 07:17:08 51°15.175 2°39.139 263.3 11.5 265 19.6
2008-06-10 07:17:13 51°15.174 2°39.114 262.9 10.9 265 19.6
2008-06-10 07:17:18 51°15.173 2°39.092 262.7 10.1 265 19.6
2008-06-10 07:17:23 51°15.171 2°39.071 262.6 9.3 264 19.7
2008-06-10 07:17:28 51°15.17 2°39.051 262.2 8.7 265 19.6
2008-06-10 07:17:33 51°15.169 2°39.033 261.9 8.1 263 19.7
2008-06-10 07:17:38 51°15.168 2°39.016 261.6 7.7 264 19.6
2008-06-10 07:17:43 51°15.167 2°39 261.1 7.2 262 19.7
2008-06-10 07:17:48 51°15.165 2°38.985 260.6 6.9 262 19.6
2008-06-10 07:17:53 51°15.164 2°38.971 259.4 6.6 260 19.8
2008-06-10 07:17:58 51°15.162 2°38.957 258.2 6.3 260 19.7
2008-06-10 07:18:03 51°15.161 2°38.943 257.1 6.1 259 19.9
2008-06-10 07:18:08 51°15.159 2°38.93 256.3 6.2 257 19.6
2008-06-10 07:18:13 51°15.157 2°38.916 255 6.2 256 19.5
2008-06-10 07:18:18 51°15.154 2°38.903 254.2 6.3 255 19.7
2008-06-10 07:18:23 51°15.152 2°38.89 253.2 6.3 254 19.5
2008-06-10 07:18:28 51°15.15 2°38.876 252.5 6.5 254 19.6
2008-06-10 07:18:33 51°15.147 2°38.862 251.8 6.6 252 19.6
2008-06-10 07:18:38 51°15.144 2°38.848 251.1 6.7 252 19.5
2008-06-10 07:18:43 51°15.141 2°38.834 250.9 6.9 251 19.4
2008-06-10 07:18:48 51°15.138 2°38.819 250.3 7 252 19.2
2008-06-10 07:18:53 51°15.135 2°38.804 249.5 7 251 19.5
2008-06-10 07:18:58 51°15.132 2°38.789 249.5 7.1 255 19.4
2008-06-10 07:19:03 51°15.13 2°38.774 252.1 7.2 258 19.4
2008-06-10 07:19:08 51°15.129 2°38.758 256.1 7.3 263 19.4
2008-06-10 07:19:13 51°15.127 2°38.742 260 7.4 262 19.4
2008-06-10 07:19:18 51°15.126 2°38.725 261.3 7.5 264 19.3
2008-06-10 07:19:23 51°15.125 2°38.709 262.1 7.6 263 19.2
2008-06-10 07:19:28 51°15.124 2°38.692 262.4 7.7 264 19.1
2008-06-10 07:19:33 51°15.123 2°38.675 262.3 7.7 263 19.1
2008-06-10 07:19:38 51°15.121 2°38.658 262 7.8 263 19
2008-06-10 07:19:43 51°15.12 2°38.641 261.2 7.8 261 19
2008-06-10 07:19:48 51°15.118 2°38.624 260.5 7.8 262 18.9
2008-06-10 07:19:53 51°15.116 2°38.607 259.7 7.9 260 18.8
2008-06-10 07:19:58 51°15.114 2°38.589 259.1 7.9 259 18.5
2008-06-10 07:20:03 51°15.112 2°38.572 257.9 7.9 258 18.7
2008-06-10 07:20:08 51°15.11 2°38.555 257.4 7.9 258 18.5
2008-06-10 07:20:13 51°15.108 2°38.538 256.7 7.9 257 18.4
2008-06-10 07:20:18 51°15.105 2°38.521 256.6 7.9 257 18.2
2008-06-10 07:20:23 51°15.102 2°38.504 255.9 8 257 17.9
2008-06-10 07:20:28 51°15.099 2°38.487 255.4 8 255 18.1
2008-06-10 07:20:33 51°15.097 2°38.47 254.2 7.7 254 17.6
2008-06-10 07:20:38 51°15.094 2°38.455 253.3 7.1 253 17.9
2008-06-10 07:20:43 51°15.091 2°38.441 252.5 6.5 252 17.6
2008-06-10 07:20:48 51°15.088 2°38.428 251.4 6.1 250 17.5
2008-06-10 07:20:53 51°15.085 2°38.416 249.8 5.7 249 17.3
2008-06-10 07:20:58 51°15.083 2°38.405 247.4 5.2 246 17.4
2008-06-10 07:21:03 51°15.08 2°38.395 245.1 4.9 245 17.2
2008-06-10 07:21:08 51°15.077 2°38.386 243.2 4.5 242 17.5
2008-06-10 07:21:13 51°15.074 2°38.378 240.8 4.3 240 17.4
2008-06-10 07:21:18 51°15.071 2°38.37 238.4 4 237 17.4
2008-06-10 07:21:23 51°15.068 2°38.363 236.4 3.7 235 17.2
2008-06-10 07:21:28 51°15.065 2°38.357 233.9 3.5 233 17
2008-06-10 07:21:33 51°15.062 2°38.351 232.3 3.3 231 17
2008-06-10 07:21:38 51°15.059 2°38.346 230.7 3.1 229 17.3
2008-06-10 07:21:43 51°15.056 2°38.341 229.1 3 227 16.9
2008-06-10 07:21:48 51°15.054 2°38.337 227.2 2.8 225 17.1
2008-06-10 07:21:53 51°15.051 2°38.333 226.1 2.7 224 17.2
2008-06-10 07:21:58 51°15.048 2°38.329 224.7 2.5 222 17
2008-06-10 07:22:03 51°15.046 2°38.326 223.2 2.4 220 17.1
2008-06-10 07:22:08 51°15.043 2°38.322 221.6 2.3 218 16.7
2008-06-10 07:22:13 51°15.041 2°38.319 220.3 2.2 215 17.1
2008-06-10 07:22:18 51°15.038 2°38.317 219.1 2.1 213 16.8
2008-06-10 07:22:23 51°15.036 2°38.314 217.9 2.1 213 17.2
2008-06-10 07:22:28 51°15.033 2°38.312 216.5 2 210 16.9
2008-06-10 07:22:33 51°15.031 2°38.31 214.9 1.9 208 17
2008-06-10 07:22:38 51°15.029 2°38.308 213.9 1.8 206 16.8
2008-06-10 07:22:43 51°15.027 2°38.307 212.8 1.8 205 17.1
2008-06-10 07:22:48 51°15.024 2°38.305 211.8 1.7 203 16.9
2008-06-10 07:22:53 51°15.022 2°38.304 211 1.6 205 16.8
2008-06-10 07:22:58 51°15.02 2°38.302 210.3 1.6 202 17.1
2008-06-10 07:23:03 51°15.018 2°38.301 209.7 1.7 203 17.1
2008-06-10 07:23:08 51°15.016 2°38.299 209.1 1.8 204 16.9
2008-06-10 07:23:13 51°15.014 2°38.297 209.1 1.9 206 17.1
2008-06-10 07:23:18 51°15.011 2°38.295 209.7 2.3 208 17
2008-06-10 07:23:23 51°15.008 2°38.292 211.9 2.5 214 17.1
2008-06-10 07:23:28 51°15.005 2°38.289 215.2 2.7 218 16.9
2008-06-10 07:23:33 51°15.002 2°38.284 219.3 2.9 224 17
2008-06-10 07:23:38 51°14.999 2°38.279 224.2 3.1 231 17
2008-06-10 07:23:43 51°14.997 2°38.274 229.3 3.2 236 16.9
2008-06-10 07:23:48 51°14.995 2°38.267 234.7 3.3 244 16.6
2008-06-10 07:23:53 51°14.993 2°38.26 240.5 3.5 250 16.9
2008-06-10 07:23:58 51°14.992 2°38.253 246 3.6 257 16.6
2008-06-10 07:24:03 51°14.991 2°38.244 251.9 3.7 262 16.6
2008-06-10 07:24:08 51°14.991 2°38.236 258.8 3.8 269 16.6
2008-06-10 07:24:13 51°14.991 2°38.228 263.4 3.9 276 16.4
2008-06-10 07:24:18 51°14.992 2°38.219 269.2 4 281 16.5
2008-06-10 07:24:23 51°14.994 2°38.211 275 4.1 288 16.2
2008-06-10 07:24:28 51°14.996 2°38.202 280.8 4.1 295 16.3
2008-06-10 07:24:33 51°14.999 2°38.194 286.8 4.2 300 16.3
2008-06-10 07:24:38 51°15.002 2°38.186 292.6 4.3 306 16
2008-06-10 07:24:43 51°15.006 2°38.179 298.6 4.4 312 16.1
2008-06-10 07:24:48 51°15.01 2°38.172 304.5 4.3 317 15.5
2008-06-10 07:24:53 51°15.015 2°38.166 310.3 4.2 321 15.8
2008-06-10 07:24:58 51°15.02 2°38.161 315.6 4.2 326 15.4
2008-06-10 07:25:03 51°15.025 2°38.156 320.1 4.1 328 15.4
2008-06-10 07:25:08 51°15.03 2°38.151 323.5 4.1 332 15.3
2008-06-10 07:25:13 51°15.035 2°38.148 326.3 4.1 335 15.3
2008-06-10 07:25:18 51°15.04 2°38.144 328.8 4 337 15.3
2008-06-10 07:25:23 51°15.045 2°38.141 331.1 4 339 15.2
2008-06-10 07:25:28 51°15.05 2°38.138 333.3 4 341 15.1
2008-06-10 07:25:33 51°15.056 2°38.136 335.5 3.9 344 14.9
2008-06-10 07:25:38 51°15.061 2°38.133 337.8 3.8 346 14.6
2008-06-10 07:25:43 51°15.066 2°38.132 340.1 3.7 349 14.8
2008-06-10 07:25:48 51°15.071 2°38.13 342.2 3.6 351 14.9
2008-06-10 07:25:53 51°15.075 2°38.129 344 3.5 352 14.6
2008-06-10 07:25:58 51°15.08 2°38.129 345.5 3.4 354 14.7
2008-06-10 07:26:03 51°15.085 2°38.128 346.8 3.3 354 14.5
2008-06-10 07:26:08 51°15.089 2°38.127 348 3.2 356 14.7
2008-06-10 07:26:13 51°15.094 2°38.127 349.1 3.2 357 14.3
2008-06-10 07:26:18 51°15.098 2°38.127 349.9 3.1 358 14.6
2008-06-10 07:26:23 51°15.102 2°38.126 350.7 3.1 358 14.4
2008-06-10 07:26:28 51°15.107 2°38.126 351.3 3.1 359 14.1
2008-06-10 07:26:33 51°15.111 2°38.126 351.9 3 1 14.4
2008-06-10 07:26:38 51°15.115 2°38.126 352.6 2.9 1 14
2008-06-10 07:26:43 51°15.119 2°38.126 353 2.9 2 14.3
2008-06-10 07:26:48 51°15.123 2°38.127 353.4 2.9 2 14.2
2008-06-10 07:26:53 51°15.126 2°38.127 353.9 2.8 2 14.4
2008-06-10 07:26:58 51°15.13 2°38.127 354.3 2.8 3 14.1
2008-06-10 07:27:03 51°15.134 2°38.127 354.7 2.8 4 14.1
2008-06-10 07:27:08 51°15.138 2°38.128 355 2.7 4 14.3
2008-06-10 07:27:13 51°15.142 2°38.128 355.2 2.7 4 14.1
2008-06-10 07:27:18 51°15.145 2°38.129 355.5 2.6 5 13.9
2008-06-10 07:27:23 51°15.149 2°38.13 355.7 2.6 5 13.9
2008-06-10 07:27:28 51°15.153 2°38.131 355.8 2.6 5 13.8
2008-06-10 07:27:33 51°15.157 2°38.131 355.9 2.7 4 13.8
2008-06-10 07:27:38 51°15.161 2°38.132 355.9 2.7 5 13.7
2008-06-10 07:27:43 51°15.164 2°38.132 355.9 2.7 5 14
2008-06-10 07:27:48 51°15.168 2°38.132 355.8 2.7 4 13.7
2008-06-10 07:27:53 51°15.171 2°38.133 355.7 2.7 3 13.8
2008-06-10 07:27:58 51°15.175 2°38.133 355.5 2.7 4 13.7
2008-06-10 07:28:03 51°15.179 2°38.133 355.3 2.7 3 14
2008-06-10 07:28:08 51°15.183 2°38.134 355.3 2.7 4 13.8
2008-06-10 07:28:13 51°15.186 2°38.134 355.1 2.7 4 13.9
2008-06-10 07:28:18 51°15.19 2°38.135 355 2.7 5 13.6
2008-06-10 07:28:23 51°15.194 2°38.135 355 2.7 4 13.9
2008-06-10 07:28:28 51°15.198 2°38.136 355 2.8 4 13.9
2008-06-10 07:28:33 51°15.202 2°38.136 355 2.8 4 13.7
2008-06-10 07:28:38 51°15.206 2°38.137 355.1 2.8 4 13.7
2008-06-10 07:28:43 51°15.21 2°38.137 355.2 2.8 4 13.9
2008-06-10 07:28:48 51°15.213 2°38.138 355.2 2.8 4 13.5
2008-06-10 07:28:53 51°15.217 2°38.138 355.2 2.8 4 13.7
2008-06-10 07:28:58 51°15.221 2°38.138 355.2 2.8 3 13.6
2008-06-10 07:29:03 51°15.225 2°38.138 354.9 2.8 3 13.8
2008-06-10 07:29:08 51°15.228 2°38.138 354.7 2.8 3 13.5
2008-06-10 07:29:13 51°15.232 2°38.139 354.5 2.8 3 13.7
2008-06-10 07:29:18 51°15.236 2°38.139 354.5 2.8 3 13.8
2008-06-10 07:29:23 51°15.24 2°38.139 354.3 2.8 3 13.4
2008-06-10 07:29:28 51°15.244 2°38.139 354.2 2.8 3 13.6
2008-06-10 07:29:33 51°15.248 2°38.14 354.1 2.8 3 13.6
2008-06-10 07:29:38 51°15.252 2°38.14 354.1 2.8 3 13.3
2008-06-10 07:29:43 51°15.255 2°38.141 354.2 2.8 3 13.4
2008-06-10 07:29:48 51°15.259 2°38.141 354.2 2.8 3 13.5
2008-06-10 07:29:53 51°15.263 2°38.142 354.3 2.8 3 13.6
2008-06-10 07:29:58 51°15.267 2°38.142 354.3 2.8 3 13.3
2008-06-10 07:30:03 51°15.271 2°38.142 354.4 2.8 2 13.5
2008-06-10 07:30:08 51°15.275 2°38.142 354.4 2.8 2 13.5
2008-06-10 07:30:13 51°15.279 2°38.142 354.1 2.8 2 13.3
2008-06-10 07:30:18 51°15.282 2°38.142 353.9 2.8 2 13.5
2008-06-10 07:30:23 51°15.286 2°38.142 353.7 2.8 1 13.3
2008-06-10 07:30:28 51°15.29 2°38.143 353.4 2.8 2 13.5
2008-06-10 07:30:33 51°15.294 2°38.143 353.2 2.8 2 13.2
2008-06-10 07:30:38 51°15.298 2°38.143 353.2 2.8 1 13.3
2008-06-10 07:30:43 51°15.302 2°38.143 353.1 2.8 -999 13.3
2008-06-10 07:30:48 51°15.306 2°38.143 352.9 2.8 1 13
2008-06-10 07:30:53 51°15.309 2°38.143 352.9 2.8 1 13.3
2008-06-10 07:30:58 51°15.313 2°38.144 352.8 2.8 1 12.9
2008-06-10 07:31:03 51°15.317 2°38.144 352.8 2.8 -999 13.2
2008-06-10 07:31:08 51°15.321 2°38.144 352.8 2.7 1 13.2
2008-06-10 07:31:13 51°15.325 2°38.144 352.8 2.8 1 13
2008-06-10 07:31:18 51°15.329 2°38.144 352.9 2.8 1 13.2
2008-06-10 07:31:23 51°15.333 2°38.144 352.9 2.8 1 13.1
2008-06-10 07:31:28 51°15.336 2°38.144 352.9 2.8 1 12.8
2008-06-10 07:31:33 51°15.34 2°38.144 353 2.8 1 12.8
2008-06-10 07:31:38 51°15.344 2°38.144 353.2 2.8 2 13.1
2008-06-10 07:31:43 51°15.348 2°38.144 353.4 2.8 1 13.2
2008-06-10 07:31:48 51°15.352 2°38.144 353.5 2.8 2 12.7
2008-06-10 07:31:53 51°15.355 2°38.144 353.6 2.8 3 12.9
2008-06-10 07:31:58 51°15.359 2°38.145 353.8 2.8 2 13.1
2008-06-10 07:32:03 51°15.363 2°38.145 353.9 2.8 2 12.8
2008-06-10 07:32:08 51°15.367 2°38.145 354.1 2.8 3 13.1
2008-06-10 07:32:13 51°15.371 2°38.145 354.1 2.8 3 13
2008-06-10 07:32:18 51°15.375 2°38.145 354.2 2.8 2 12.9
2008-06-10 07:32:23 51°15.379 2°38.146 354.3 2.8 3 13.1
2008-06-10 07:32:28 51°15.382 2°38.146 354.4 2.8 2 13.1
2008-06-10 07:32:33 51°15.386 2°38.146 354.5 2.8 2 12.7
2008-06-10 07:32:38 51°15.39 2°38.146 354.5 2.8 2 13.1
2008-06-10 07:32:43 51°15.394 2°38.147 354.5 2.8 2 12.8
2008-06-10 07:32:48 51°15.398 2°38.147 354.4 2.8 2 13
2008-06-10 07:32:53 51°15.402 2°38.147 354.3 2.8 2 13.1
2008-06-10 07:32:58 51°15.405 2°38.147 354.2 2.8 3 12.8
2008-06-10 07:33:03 51°15.409 2°38.148 354.1 2.8 2 12.9
2008-06-10 07:33:08 51°15.413 2°38.148 354.1 2.8 3 12.8
2008-06-10 07:33:13 51°15.417 2°38.148 354.1 2.8 3 12.6
2008-06-10 07:33:18 51°15.421 2°38.148 354.2 2.8 2 12.9
2008-06-10 07:33:23 51°15.425 2°38.149 354.6 2.8 4 12.9
2008-06-10 07:33:28 51°15.429 2°38.149 354.9 2.8 4 12.8
2008-06-10 07:33:33 51°15.432 2°38.15 355.4 2.8 5 12.9
2008-06-10 07:33:38 51°15.436 2°38.15 355.9 2.8 5 13.1
2008-06-10 07:33:43 51°15.44 2°38.151 356.4 2.8 5 12.6
2008-06-10 07:33:48 51°15.444 2°38.151 356.7 2.8 5 12.8
2008-06-10 07:33:53 51°15.448 2°38.152 357 2.8 6 12.7
2008-06-10 07:33:58 51°15.452 2°38.152 357.3 2.8 5 13.1
2008-06-10 07:34:03 51°15.456 2°38.153 357.5 2.8 6 12.8
2008-06-10 07:34:08 51°15.459 2°38.154 357.7 2.8 5 13
2008-06-10 07:34:13 51°15.463 2°38.154 357.7 2.8 5 12.7
2008-06-10 07:34:18 51°15.467 2°38.155 357.8 2.8 7 13.2
2008-06-10 07:34:23 51°15.471 2°38.155 357.8 2.8 5 12.8
2008-06-10 07:34:28 51°15.475 2°38.156 357.9 2.8 5 13.1
2008-06-10 07:34:33 51°15.479 2°38.157 357.9 2.8 7 13.1
2008-06-10 07:34:38 51°15.483 2°38.157 357.9 2.8 7 13
2008-06-10 07:34:43 51°15.486 2°38.158 358 2.8 6 12.8
2008-06-10 07:34:48 51°15.49 2°38.159 358.4 2.8 7 13
2008-06-10 07:34:53 51°15.494 2°38.159 358.9 2.8 7 12.7
2008-06-10 07:34:58 51°15.498 2°38.16 359.4 2.8 8 12.8
2008-06-10 07:35:03 51°15.502 2°38.161 -999 2.8 9 12.7
2008-06-10 07:35:08 51°15.506 2°38.162 0.8 2.8 10 13
2008-06-10 07:35:13 51°15.51 2°38.163 1.7 2.8 11 12.8
2008-06-10 07:35:18 51°15.513 2°38.164 2.6 2.8 10 12.9
2008-06-10 07:35:23 51°15.517 2°38.165 3.3 2.8 10 12.8
2008-06-10 07:35:28 51°15.521 2°38.166 4.2 2.8 12 12.7
2008-06-10 07:35:33 51°15.525 2°38.168 5 2.8 12 12.9
2008-06-10 07:35:38 51°15.528 2°38.169 5.8 2.8 13 12.8
2008-06-10 07:35:43 51°15.532 2°38.17 6.6 2.8 13 12.6
2008-06-10 07:35:48 51°15.536 2°38.172 7 2.8 14 12.8
2008-06-10 07:35:53 51°15.54 2°38.174 7.4 2.8 15 12.7
2008-06-10 07:35:58 51°15.544 2°38.175 7.8 2.8 14 12.6
2008-06-10 07:36:03 51°15.547 2°38.177 8 2.8 15 12.7
2008-06-10 07:36:08 51°15.551 2°38.178 8.4 2.8 15 12.7
2008-06-10 07:36:13 51°15.555 2°38.18 8.6 2.8 14 13
2008-06-10 07:36:18 51°15.559 2°38.181 8.8 2.8 16 12.5
2008-06-10 07:36:23 51°15.562 2°38.183 9 2.8 16 12.9
2008-06-10 07:36:28 51°15.566 2°38.185 9.1 2.8 15 12.6
2008-06-10 07:36:33 51°15.57 2°38.186 9.2 2.8 16 12.8
2008-06-10 07:36:38 51°15.573 2°38.188 9.4 2.8 16 12.8
2008-06-10 07:36:43 51°15.577 2°38.19 9.5 2.8 16 12.9
2008-06-10 07:36:48 51°15.581 2°38.192 9.8 2.8 16 12.7
2008-06-10 07:36:53 51°15.585 2°38.193 9.8 2.8 16 12.6
2008-06-10 07:36:58 51°15.589 2°38.195 10 2.8 16 12.7
2008-06-10 07:37:03 51°15.593 2°38.197 10.1 2.8 16 12.8
2008-06-10 07:37:08 51°15.596 2°38.199 10.1 2.8 16 12.8
2008-06-10 07:37:13 51°15.6 2°38.201 10.1 2.8 17 12.3
2008-06-10 07:37:18 51°15.604 2°38.202 10.1 2.8 16 12.8
2008-06-10 07:37:23 51°15.608 2°38.204 10.1 2.8 16 12.7